CheckWX is a tool to help pilots better visualize weather data.  It is not intended as a substitute for an official pre-flight weather briefing.

14:21:29 UTC

TDPD TAF
Melville Hall Airport
Marigot, Dominica
TAF TDPD 201100Z 2012/2112 VRB02KT 9999 SCT018 PROB30 TEMPO 2018/2104 SHRA BKN014 FEW015CB SCT036

Aug-20@
12:00 UTC

Aug-20 @ 12:00 UTC

Aug-21@
12:00 UTC

Aug-21 @ 12:00 UTC

TAF TDPD 201100Z 2012/2112 VRB02KT 9999 SCT018
Wind
  • Variable at 2 KTS
Cloud Levels
  • Scattered at 1,800' AGL

Aug-20@
18:00 UTC

Aug-20 @ 18:00 UTC

Aug-21@
04:00 UTC

Aug-21 @ 04:00 UTC

PROB30 TEMPO 2018/2104 SHRA BKN014 FEW015CB SCT036

Temporary - 30% Likelihood

Temporary - 30% Likelihood during this time.

Conditions
Rain
Cloud Levels
  • Broken at 1,400' AGL
  • Few at 1,500' AGL
  • Scattered at 3,600' AGL